sensor_id;sensor_type;location;lat;lon;timestamp;pressure;altitude;pressure_sealevel;temperature;humidity
54920;BME280;63804;53.120;8.764;2023-03-26T00:02:03;100466.69;;;7.06;81.45
54920;BME280;63804;53.120;8.764;2023-03-26T00:04:35;100462.25;;;7.06;81.19
54920;BME280;63804;53.120;8.764;2023-03-26T00:07:02;100461.50;;;7.04;81.00
54920;BME280;63804;53.120;8.764;2023-03-26T00:09:28;100463.72;;;7.10;80.96
54920;BME280;63804;53.120;8.764;2023-03-26T00:11:54;100462.47;;;7.03;80.94
54920;BME280;63804;53.120;8.764;2023-03-26T00:14:21;100468.59;;;7.03;80.76
54920;BME280;63804;53.120;8.764;2023-03-26T00:16:46;100477.16;;;7.07;80.63
54920;BME280;63804;53.120;8.764;2023-03-26T00:19:14;100483.28;;;7.08;80.40
54920;BME280;63804;53.120;8.764;2023-03-26T00:21:40;100478.66;;;6.98;81.22
54920;BME280;63804;53.120;8.764;2023-03-26T00:24:11;100487.09;;;7.03;80.53
54920;BME280;63804;53.120;8.764;2023-03-26T00:26:39;100487.22;;;7.02;80.63
54920;BME280;63804;53.120;8.764;2023-03-26T00:29:08;100481.00;;;6.90;80.69
54920;BME280;63804;53.120;8.764;2023-03-26T00:31:37;100494.09;;;6.92;80.92
54920;BME280;63804;53.120;8.764;2023-03-26T00:34:07;100487.53;;;6.97;80.92
54920;BME280;63804;53.120;8.764;2023-03-26T00:36:34;100494.50;;;6.98;81.13
54920;BME280;63804;53.120;8.764;2023-03-26T00:39:00;100506.41;;;7.04;81.16
54920;BME280;63804;53.120;8.764;2023-03-26T00:41:30;100502.22;;;7.01;80.63
54920;BME280;63804;53.120;8.764;2023-03-26T00:43:58;100494.06;;;7.05;80.60
54920;BME280;63804;53.120;8.764;2023-03-26T00:46:25;100498.63;;;7.02;80.31
54920;BME280;63804;53.120;8.764;2023-03-26T00:48:51;100507.72;;;6.98;79.43
54920;BME280;63804;53.120;8.764;2023-03-26T00:51:19;100507.72;;;6.98;79.96
54920;BME280;63804;53.120;8.764;2023-03-26T00:53:46;100501.38;;;7.01;79.74
54920;BME280;63804;53.120;8.764;2023-03-26T00:56:12;100504.72;;;7.03;79.62
54920;BME280;63804;53.120;8.764;2023-03-26T00:58:38;100508.56;;;6.99;79.59
54920;BME280;63804;53.120;8.764;2023-03-26T01:01:10;100508.38;;;6.89;80.01
54920;BME280;63804;53.120;8.764;2023-03-26T01:03:38;100506.78;;;6.87;80.01
54920;BME280;63804;53.120;8.764;2023-03-26T01:06:08;100506.56;;;6.90;80.08
54920;BME280;63804;53.120;8.764;2023-03-26T01:11:15;100507.31;;;6.79;80.01
54920;BME280;63804;53.120;8.764;2023-03-26T01:13:48;100509.97;;;6.79;79.87
54920;BME280;63804;53.120;8.764;2023-03-26T01:16:22;100511.22;;;6.86;79.43
54920;BME280;63804;53.120;8.764;2023-03-26T01:18:53;100514.06;;;6.83;79.59
54920;BME280;63804;53.120;8.764;2023-03-26T01:21:22;100513.56;;;6.78;79.44
54920;BME280;63804;53.120;8.764;2023-03-26T01:24:07;100516.94;;;6.80;79.72
54920;BME280;63804;53.120;8.764;2023-03-26T01:32:35;100520.41;;;6.81;78.53
54920;BME280;63804;53.120;8.764;2023-03-26T01:35:31;100513.03;;;6.86;78.31
54920;BME280;63804;53.120;8.764;2023-03-26T01:43:09;100508.59;;;6.86;78.74
54920;BME280;63804;53.120;8.764;2023-03-26T01:45:38;100507.75;;;6.86;78.94
54920;BME280;63804;53.120;8.764;2023-03-26T01:48:06;100499.41;;;6.79;78.98
54920;BME280;63804;53.120;8.764;2023-03-26T01:50:31;100499.28;;;6.81;79.29
54920;BME280;63804;53.120;8.764;2023-03-26T01:52:57;100502.66;;;6.83;79.49
54920;BME280;63804;53.120;8.764;2023-03-26T01:55:28;100510.59;;;6.83;79.49
54920;BME280;63804;53.120;8.764;2023-03-26T02:00:37;100505.63;;;6.91;79.13
54920;BME280;63804;53.120;8.764;2023-03-26T02:03:26;100508.19;;;6.67;79.90
54920;BME280;63804;53.120;8.764;2023-03-26T02:06:04;100508.50;;;6.75;79.69
54920;BME280;63804;53.120;8.764;2023-03-26T02:09:05;100512.78;;;6.89;79.02
54920;BME280;63804;53.120;8.764;2023-03-26T02:11:34;100515.22;;;6.92;78.96
54920;BME280;63804;53.120;8.764;2023-03-26T02:14:03;100508.25;;;6.91;78.69
54920;BME280;63804;53.120;8.764;2023-03-26T02:16:29;100506.88;;;6.85;78.44
54920;BME280;63804;53.120;8.764;2023-03-26T02:18:54;100505.19;;;6.84;78.23
54920;BME280;63804;53.120;8.764;2023-03-26T02:21:21;100511.44;;;6.83;77.42
54920;BME280;63804;53.120;8.764;2023-03-26T02:23:50;100505.81;;;6.88;76.36
54920;BME280;63804;53.120;8.764;2023-03-26T02:26:22;100505.81;;;6.88;76.01
54920;BME280;63804;53.120;8.764;2023-03-26T02:28:48;100508.66;;;6.85;75.79
54920;BME280;63804;53.120;8.764;2023-03-26T02:31:13;100501.03;;;6.93;75.76
54920;BME280;63804;53.120;8.764;2023-03-26T02:33:43;100504.97;;;6.87;75.07
54920;BME280;63804;53.120;8.764;2023-03-26T02:36:12;100493.16;;;6.80;75.07
54920;BME280;63804;53.120;8.764;2023-03-26T02:38:38;100490.31;;;6.83;75.11
54920;BME280;63804;53.120;8.764;2023-03-26T02:41:04;100489.97;;;6.88;74.96
54920;BME280;63804;53.120;8.764;2023-03-26T02:43:30;100490.94;;;6.87;75.05
54920;BME280;63804;53.120;8.764;2023-03-26T02:45:56;100488.94;;;6.90;74.67
54920;BME280;63804;53.120;8.764;2023-03-26T02:48:22;100486.50;;;6.87;74.94
54920;BME280;63804;53.120;8.764;2023-03-26T02:50:47;100486.63;;;6.86;74.99
54920;BME280;63804;53.120;8.764;2023-03-26T02:53:22;100481.84;;;6.91;74.82
54920;BME280;63804;53.120;8.764;2023-03-26T02:55:48;100479.91;;;6.93;75.04
54920;BME280;63804;53.120;8.764;2023-03-26T02:58:14;100481.63;;;6.94;75.01
54920;BME280;63804;53.120;8.764;2023-03-26T03:00:43;100487.41;;;6.99;75.13
54920;BME280;63804;53.120;8.764;2023-03-26T03:03:09;100482.88;;;7.01;75.00
54920;BME280;63804;53.120;8.764;2023-03-26T03:05:34;100482.47;;;6.94;75.31
54920;BME280;63804;53.120;8.764;2023-03-26T03:08:03;100478.25;;;6.92;75.29
54920;BME280;63804;53.120;8.764;2023-03-26T03:10:30;100479.31;;;6.89;75.54
54920;BME280;63804;53.120;8.764;2023-03-26T03:12:57;100475.72;;;6.90;74.99
54920;BME280;63804;53.120;8.764;2023-03-26T03:15:23;100474.75;;;6.91;74.82
54920;BME280;63804;53.120;8.764;2023-03-26T03:17:49;100475.72;;;6.90;75.07
54920;BME280;63804;53.120;8.764;2023-03-26T03:20:15;100475.59;;;6.92;75.69
54920;BME280;63804;53.120;8.764;2023-03-26T03:22:41;100477.06;;;6.96;75.75
54920;BME280;63804;53.120;8.764;2023-03-26T03:25:07;100483.09;;;6.98;75.97
54920;BME280;63804;53.120;8.764;2023-03-26T03:27:34;100474.44;;;6.96;75.80
54920;BME280;63804;53.120;8.764;2023-03-26T03:29:59;100479.63;;;6.97;76.30
54920;BME280;63804;53.120;8.764;2023-03-26T03:32:25;100483.94;;;6.98;76.65
54920;BME280;63804;53.120;8.764;2023-03-26T03:34:51;100480.25;;;7.01;76.76
54920;BME280;63804;53.120;8.764;2023-03-26T03:37:18;100478.16;;;6.93;76.67
54920;BME280;63804;53.120;8.764;2023-03-26T03:39:44;100486.16;;;6.92;76.45
54920;BME280;63804;53.120;8.764;2023-03-26T03:42:09;100484.28;;;6.94;76.55
54920;BME280;63804;53.120;8.764;2023-03-26T03:44:35;100483.84;;;6.87;76.14
54920;BME280;63804;53.120;8.764;2023-03-26T03:47:01;100480.47;;;6.85;76.11
54920;BME280;63804;53.120;8.764;2023-03-26T03:49:26;100477.53;;;6.90;75.73
54920;BME280;63804;53.120;8.764;2023-03-26T03:51:51;100482.91;;;6.88;75.46
54920;BME280;63804;53.120;8.764;2023-03-26T03:54:17;100481.44;;;6.84;74.51
54920;BME280;63804;53.120;8.764;2023-03-26T03:56:43;100483.22;;;6.84;74.28
54920;BME280;63804;53.120;8.764;2023-03-26T03:59:10;100479.88;;;6.82;73.67
54920;BME280;63804;53.120;8.764;2023-03-26T04:01:36;100479.00;;;6.81;72.99
54920;BME280;63804;53.120;8.764;2023-03-26T04:04:01;100484.72;;;6.75;72.81
54920;BME280;63804;53.120;8.764;2023-03-26T04:06:27;100489.25;;;6.73;72.77
54920;BME280;63804;53.120;8.764;2023-03-26T04:08:55;100479.44;;;6.75;72.57
54920;BME280;63804;53.120;8.764;2023-03-26T04:11:20;100497.94;;;6.75;72.62
54920;BME280;63804;53.120;8.764;2023-03-26T04:13:47;100481.66;;;6.68;72.22
54920;BME280;63804;53.120;8.764;2023-03-26T04:16:12;100488.00;;;6.66;72.00
54920;BME280;63804;53.120;8.764;2023-03-26T04:18:38;100470.06;;;6.71;72.31
54920;BME280;63804;53.120;8.764;2023-03-26T04:21:05;100477.97;;;6.71;72.10
54920;BME280;63804;53.120;8.764;2023-03-26T04:23:32;100476.69;;;6.76;72.10
54920;BME280;63804;53.120;8.764;2023-03-26T04:26:04;100482.31;;;6.72;72.13
54920;BME280;63804;53.120;8.764;2023-03-26T04:28:58;100474.81;;;6.66;72.39
54920;BME280;63804;53.120;8.764;2023-03-26T04:31:26;100474.91;;;6.64;72.53
54920;BME280;63804;53.120;8.764;2023-03-26T04:33:58;100477.69;;;6.63;72.74
54920;BME280;63804;53.120;8.764;2023-03-26T04:36:30;100471.66;;;6.61;72.31
54920;BME280;63804;53.120;8.764;2023-03-26T04:38:57;100469.75;;;6.63;72.32
54920;BME280;63804;53.120;8.764;2023-03-26T04:41:29;100474.09;;;6.64;71.94
54920;BME280;63804;53.120;8.764;2023-03-26T04:43:56;100473.97;;;6.52;71.41
54920;BME280;63804;53.120;8.764;2023-03-26T04:46:26;100467.13;;;6.50;71.22
54920;BME280;63804;53.120;8.764;2023-03-26T04:48:53;100461.97;;;6.48;70.97
54920;BME280;63804;53.120;8.764;2023-03-26T04:51:23;100467.31;;;6.47;70.68
54920;BME280;63804;53.120;8.764;2023-03-26T04:53:54;100474.25;;;6.35;68.05
54920;BME280;63804;53.120;8.764;2023-03-26T04:56:44;100474.72;;;6.29;68.50
54920;BME280;63804;53.120;8.764;2023-03-26T04:59:16;100475.75;;;6.26;68.26
54920;BME280;63804;53.120;8.764;2023-03-26T05:01:42;100477.53;;;6.26;67.97
54920;BME280;63804;53.120;8.764;2023-03-26T05:04:11;100480.38;;;6.23;67.42
54920;BME280;63804;53.120;8.764;2023-03-26T05:06:39;100476.38;;;6.30;67.15
54920;BME280;63804;53.120;8.764;2023-03-26T05:09:06;100478.31;;;6.28;65.88
54920;BME280;63804;53.120;8.764;2023-03-26T05:11:32;100473.22;;;6.25;65.94
54920;BME280;63804;53.120;8.764;2023-03-26T05:13:58;100479.34;;;6.25;65.19
54920;BME280;63804;53.120;8.764;2023-03-26T05:16:24;100483.47;;;6.29;64.88
54920;BME280;63804;53.120;8.764;2023-03-26T05:18:50;100481.78;;;6.28;65.13
54920;BME280;63804;53.120;8.764;2023-03-26T05:21:16;100479.03;;;6.30;64.51
54920;BME280;63804;53.120;8.764;2023-03-26T05:23:41;100475.66;;;6.28;64.15
54920;BME280;63804;53.120;8.764;2023-03-26T05:26:08;100474.59;;;6.30;64.11
54920;BME280;63804;53.120;8.764;2023-03-26T05:28:34;100480.63;;;6.33;64.50
54920;BME280;63804;53.120;8.764;2023-03-26T05:30:59;100472.50;;;6.36;64.56
54920;BME280;63804;53.120;8.764;2023-03-26T05:33:25;100467.78;;;6.41;64.40
54920;BME280;63804;53.120;8.764;2023-03-26T05:36:07;100468.28;;;6.46;64.59
54920;BME280;63804;53.120;8.764;2023-03-26T05:38:34;100474.41;;;6.46;64.43
54920;BME280;63804;53.120;8.764;2023-03-26T05:41:05;100467.31;;;6.47;64.59
54920;BME280;63804;53.120;8.764;2023-03-26T05:43:31;100469.03;;;6.48;63.74
54920;BME280;63804;53.120;8.764;2023-03-26T05:45:56;100474.94;;;6.51;62.98
54920;BME280;63804;53.120;8.764;2023-03-26T05:48:22;100469.88;;;6.48;62.76
54920;BME280;63804;53.120;8.764;2023-03-26T05:50:49;100474.31;;;6.48;62.93
54920;BME280;63804;53.120;8.764;2023-03-26T05:53:15;100484.53;;;6.52;63.45
54920;BME280;63804;53.120;8.764;2023-03-26T05:55:43;100476.50;;;6.54;63.12
54920;BME280;63804;53.120;8.764;2023-03-26T05:58:10;100479.56;;;6.61;63.41
54920;BME280;63804;53.120;8.764;2023-03-26T06:00:36;100488.00;;;6.66;63.38
54920;BME280;63804;53.120;8.764;2023-03-26T06:03:03;100486.22;;;6.66;63.45
54920;BME280;63804;53.120;8.764;2023-03-26T06:05:32;100478.53;;;6.63;63.79
54920;BME280;63804;53.120;8.764;2023-03-26T06:08:02;100476.22;;;6.59;63.94
54920;BME280;63804;53.120;8.764;2023-03-26T06:10:27;100478.09;;;6.57;64.09
54920;BME280;63804;53.120;8.764;2023-03-26T06:12:53;100473.88;;;6.54;64.05
54920;BME280;63804;53.120;8.764;2023-03-26T06:15:18;100472.06;;;6.54;64.75
54920;BME280;63804;53.120;8.764;2023-03-26T06:17:45;100471.84;;;6.58;64.40
54920;BME280;63804;53.120;8.764;2023-03-26T06:20:14;100473.78;;;6.56;64.40
54920;BME280;63804;53.120;8.764;2023-03-26T06:22:39;100471.34;;;6.52;64.70
54920;BME280;63804;53.120;8.764;2023-03-26T06:25:05;100473.88;;;6.54;65.05
54920;BME280;63804;53.120;8.764;2023-03-26T06:27:31;100459.63;;;6.57;65.22
54920;BME280;63804;53.120;8.764;2023-03-26T06:29:56;100473.25;;;6.63;64.93
54920;BME280;63804;53.120;8.764;2023-03-26T06:32:22;100466.88;;;6.66;65.18
54920;BME280;63804;53.120;8.764;2023-03-26T06:34:47;100470.06;;;6.58;65.11
54920;BME280;63804;53.120;8.764;2023-03-26T06:37:14;100470.69;;;6.62;65.19
54920;BME280;63804;53.120;8.764;2023-03-26T06:39:40;100470.28;;;6.68;65.18
54920;BME280;63804;53.120;8.764;2023-03-26T06:42:06;100477.22;;;6.69;65.41
54920;BME280;63804;53.120;8.764;2023-03-26T06:44:32;100480.94;;;6.66;65.57
54920;BME280;63804;53.120;8.764;2023-03-26T06:46:57;100478.84;;;6.59;65.61
54920;BME280;63804;53.120;8.764;2023-03-26T06:49:23;100481.50;;;6.59;65.66
54920;BME280;63804;53.120;8.764;2023-03-26T06:51:48;100479.78;;;6.58;65.69
54920;BME280;63804;53.120;8.764;2023-03-26T06:54:14;100485.47;;;6.64;65.55
54920;BME280;63804;53.120;8.764;2023-03-26T06:56:39;100482.00;;;6.64;65.44
54920;BME280;63804;53.120;8.764;2023-03-26T06:59:05;100489.06;;;6.63;66.05
54920;BME280;63804;53.120;8.764;2023-03-26T07:01:30;100487.06;;;6.67;65.93
54920;BME280;63804;53.120;8.764;2023-03-26T07:03:56;100486.66;;;6.60;66.05
54920;BME280;63804;53.120;8.764;2023-03-26T07:06:22;100489.91;;;6.64;66.42
54920;BME280;63804;53.120;8.764;2023-03-26T07:08:48;100489.41;;;6.59;66.04
54920;BME280;63804;53.120;8.764;2023-03-26T07:11:13;100490.00;;;6.62;66.20
54920;BME280;63804;53.120;8.764;2023-03-26T07:13:41;100493.81;;;6.58;66.11
54920;BME280;63804;53.120;8.764;2023-03-26T07:16:07;100489.50;;;6.57;66.45
54920;BME280;63804;53.120;8.764;2023-03-26T07:18:32;100481.78;;;6.54;66.53
54920;BME280;63804;53.120;8.764;2023-03-26T07:20:58;100479.69;;;6.59;65.99
54920;BME280;63804;53.120;8.764;2023-03-26T07:23:24;100481.25;;;6.62;64.60
54920;BME280;63804;53.120;8.764;2023-03-26T07:25:50;100479.16;;;6.67;63.82
54920;BME280;63804;53.120;8.764;2023-03-26T07:28:36;100477.25;;;6.56;62.08
54920;BME280;63804;53.120;8.764;2023-03-26T07:36:20;100475.66;;;6.66;62.17
54920;BME280;63804;53.120;8.764;2023-03-26T07:41:48;100478.94;;;6.57;61.87
54920;BME280;63804;53.120;8.764;2023-03-26T07:46:51;100478.31;;;6.66;60.93
54920;BME280;63804;53.120;8.764;2023-03-26T07:49:36;100477.69;;;6.63;60.27
54920;BME280;63804;53.120;8.764;2023-03-26T07:52:21;100477.22;;;6.69;60.38
54920;BME280;63804;53.120;8.764;2023-03-26T07:55:06;100467.94;;;6.76;60.31
54920;BME280;63804;53.120;8.764;2023-03-26T08:00:36;100469.31;;;6.82;59.89
54920;BME280;63804;53.120;8.764;2023-03-26T08:08:49;100472.34;;;6.88;57.44
54920;BME280;63804;53.120;8.764;2023-03-26T08:16:44;100476.75;;;7.00;57.90
54920;BME280;63804;53.120;8.764;2023-03-26T08:22:15;100472.69;;;7.08;57.97
54920;BME280;63804;53.120;8.764;2023-03-26T08:27:39;100466.38;;;7.10;58.11
54920;BME280;63804;53.120;8.764;2023-03-26T08:30:18;100465.03;;;7.05;57.76
54920;BME280;63804;53.120;8.764;2023-03-26T08:32:53;100469.75;;;7.12;57.26
54920;BME280;63804;53.120;8.764;2023-03-26T08:35:27;100475.13;;;7.11;57.67
54920;BME280;63804;53.120;8.764;2023-03-26T08:37:53;100469.69;;;7.25;58.07
54920;BME280;63804;53.120;8.764;2023-03-26T08:55:02;100478.94;;;7.43;54.71
54920;BME280;63804;53.120;8.764;2023-03-26T09:03:19;100489.22;;;7.59;54.82
54920;BME280;63804;53.120;8.764;2023-03-26T09:06:26;100485.28;;;7.41;54.73
54920;BME280;63804;53.120;8.764;2023-03-26T09:14:55;100485.78;;;7.22;54.12
54920;BME280;63804;53.120;8.764;2023-03-26T09:25:52;100495.56;;;7.57;53.20
54920;BME280;63804;53.120;8.764;2023-03-26T09:31:42;100488.88;;;7.64;52.14
54920;BME280;63804;53.120;8.764;2023-03-26T09:34:21;100485.25;;;7.65;52.87
54920;BME280;63804;53.120;8.764;2023-03-26T09:37:12;100489.56;;;7.55;51.21
54920;BME280;63804;53.120;8.764;2023-03-26T09:42:21;100488.88;;;7.64;52.30
54920;BME280;63804;53.120;8.764;2023-03-26T09:53:15;100489.63;;;8.12;50.60
54920;BME280;63804;53.120;8.764;2023-03-26T09:55:55;100481.22;;;8.18;50.88
54920;BME280;63804;53.120;8.764;2023-03-26T10:01:56;100486.06;;;8.24;49.14
54920;BME280;63804;53.120;8.764;2023-03-26T10:07:33;100491.03;;;8.40;51.12
54920;BME280;63804;53.120;8.764;2023-03-26T10:10:14;100490.66;;;8.45;50.33
54920;BME280;63804;53.120;8.764;2023-03-26T10:12:45;100493.69;;;8.52;50.09
54920;BME280;63804;53.120;8.764;2023-03-26T10:15:55;100491.41;;;8.47;49.30
54920;BME280;63804;53.120;8.764;2023-03-26T10:19:46;100488.38;;;8.29;49.08
54920;BME280;63804;53.120;8.764;2023-03-26T10:24:53;100487.41;;;8.30;50.94
54920;BME280;63804;53.120;8.764;2023-03-26T10:39:20;100478.41;;;8.55;49.30
54920;BME280;63804;53.120;8.764;2023-03-26T10:42:04;100481.44;;;8.51;48.20
54920;BME280;63804;53.120;8.764;2023-03-26T10:44:57;100485.97;;;8.48;48.88
54920;BME280;63804;53.120;8.764;2023-03-26T10:47:47;100473.13;;;8.44;48.70
54920;BME280;63804;53.120;8.764;2023-03-26T10:50:34;100469.16;;;8.61;50.21
54920;BME280;63804;53.120;8.764;2023-03-26T10:53:11;100473.59;;;8.83;49.90
54920;BME280;63804;53.120;8.764;2023-03-26T10:55:43;100478.66;;;8.74;50.00
54920;BME280;63804;53.120;8.764;2023-03-26T10:58:16;100482.03;;;8.77;49.48
54920;BME280;63804;53.120;8.764;2023-03-26T11:00:52;100481.53;;;8.71;48.98
54920;BME280;63804;53.120;8.764;2023-03-26T11:06:05;100485.06;;;8.61;48.89
54920;BME280;63804;53.120;8.764;2023-03-26T11:23:11;100501.19;;;8.80;47.60
54920;BME280;63804;53.120;8.764;2023-03-26T11:34:12;100489.47;;;8.49;47.78
54920;BME280;63804;53.120;8.764;2023-03-26T11:36:45;100491.41;;;8.47;48.44
54920;BME280;63804;53.120;8.764;2023-03-26T11:39:18;100491.53;;;8.34;48.03
54920;BME280;63804;53.120;8.764;2023-03-26T11:41:48;100487.84;;;8.24;48.35
54920;BME280;63804;53.120;8.764;2023-03-26T11:44:27;100495.31;;;8.19;47.68
54920;BME280;63804;53.120;8.764;2023-03-26T11:46:59;100492.41;;;8.22;47.42
54920;BME280;63804;53.120;8.764;2023-03-26T11:49:28;100482.88;;;8.66;46.98
54920;BME280;63804;53.120;8.764;2023-03-26T11:51:53;100482.72;;;9.12;45.59
54920;BME280;63804;53.120;8.764;2023-03-26T11:54:19;100478.13;;;9.26;44.86
54920;BME280;63804;53.120;8.764;2023-03-26T11:56:58;100472.25;;;9.00;43.85
54920;BME280;63804;53.120;8.764;2023-03-26T12:07:03;100476.47;;;8.91;46.17
54920;BME280;63804;53.120;8.764;2023-03-26T12:09:31;100476.22;;;8.94;46.71
54920;BME280;63804;53.120;8.764;2023-03-26T12:12:02;100459.88;;;8.66;46.19
54920;BME280;63804;53.120;8.764;2023-03-26T12:14:31;100478.03;;;8.48;47.84
54920;BME280;63804;53.120;8.764;2023-03-26T12:17:11;100471.19;;;8.35;47.10
54920;BME280;63804;53.120;8.764;2023-03-26T12:19:41;100477.56;;;8.32;47.93
54920;BME280;63804;53.120;8.764;2023-03-26T12:22:37;100472.44;;;8.18;46.59
54920;BME280;63804;53.120;8.764;2023-03-26T12:25:22;100478.94;;;8.14;47.78
54920;BME280;63804;53.120;8.764;2023-03-26T12:27:51;100472.03;;;8.35;46.64
54920;BME280;63804;53.120;8.764;2023-03-26T12:30:26;100462.66;;;8.65;46.12
54920;BME280;63804;53.120;8.764;2023-03-26T12:33:12;100470.34;;;8.79;45.58
54920;BME280;63804;53.120;8.764;2023-03-26T12:35:41;100464.50;;;9.19;44.58
54920;BME280;63804;53.120;8.764;2023-03-26T12:40:46;100460.09;;;9.40;44.51
54920;BME280;63804;53.120;8.764;2023-03-26T12:43:29;100463.50;;;9.31;43.95
54920;BME280;63804;53.120;8.764;2023-03-26T12:45:56;100470.72;;;9.29;45.03
54920;BME280;63804;53.120;8.764;2023-03-26T12:48:23;100468.97;;;9.18;45.44
54920;BME280;63804;53.120;8.764;2023-03-26T13:12:51;100459.06;;;9.20;42.90
54920;BME280;63804;53.120;8.764;2023-03-26T13:15:30;100465.16;;;9.43;43.38
54920;BME280;63804;53.120;8.764;2023-03-26T13:18:21;100461.00;;;9.62;43.27
54920;BME280;63804;53.120;8.764;2023-03-26T13:21:14;100460.47;;;9.36;42.38
54920;BME280;63804;53.120;8.764;2023-03-26T13:26:36;100457.09;;;9.45;43.53
54920;BME280;63804;53.120;8.764;2023-03-26T13:34:58;100461.34;;;9.25;44.17
54920;BME280;63804;53.120;8.764;2023-03-26T13:37:43;100465.03;;;8.79;45.21
54920;BME280;63804;53.120;8.764;2023-03-26T13:45:51;100469.63;;;8.88;44.71
54920;BME280;63804;53.120;8.764;2023-03-26T13:48:23;100471.69;;;8.85;44.16
54920;BME280;63804;53.120;8.764;2023-03-26T13:51:20;100472.88;;;9.03;43.70
54920;BME280;63804;53.120;8.764;2023-03-26T13:56:38;100465.53;;;8.51;45.67
54920;BME280;63804;53.120;8.764;2023-03-26T13:59:15;100464.94;;;8.81;45.07
54920;BME280;63804;53.120;8.764;2023-03-26T14:01:51;100469.91;;;9.17;43.85
54920;BME280;63804;53.120;8.764;2023-03-26T14:04:25;100463.41;;;9.21;43.11
54920;BME280;63804;53.120;8.764;2023-03-26T14:07:04;100461.69;;;9.32;44.40
54920;BME280;63804;53.120;8.764;2023-03-26T14:10:12;100469.84;;;8.96;45.04
54920;BME280;63804;53.120;8.764;2023-03-26T14:15:30;100474.31;;;8.40;46.56
54920;BME280;63804;53.120;8.764;2023-03-26T14:18:30;100479.81;;;8.25;45.97
54920;BME280;63804;53.120;8.764;2023-03-26T14:26:34;100482.00;;;8.32;46.86
54920;BME280;63804;53.120;8.764;2023-03-26T14:29:27;100474.44;;;8.38;45.44
54920;BME280;63804;53.120;8.764;2023-03-26T14:32:09;100477.69;;;8.31;45.69
54920;BME280;63804;53.120;8.764;2023-03-26T14:37:44;100487.66;;;8.27;46.51
54920;BME280;63804;53.120;8.764;2023-03-26T14:49:10;100493.00;;;8.49;46.06
54920;BME280;63804;53.120;8.764;2023-03-26T14:54:23;100490.59;;;8.22;46.35
54920;BME280;63804;53.120;8.764;2023-03-26T15:37:24;100520.19;;;8.63;44.74
54920;BME280;63804;53.120;8.764;2023-03-26T15:42:36;100531.41;;;8.78;43.91
54920;BME280;63804;53.120;8.764;2023-03-26T15:48:20;100528.25;;;8.61;44.27
54920;BME280;63804;53.120;8.764;2023-03-26T15:53:45;100538.44;;;8.32;45.53
54920;BME280;63804;53.120;8.764;2023-03-26T15:56:18;100557.41;;;8.26;45.51
54920;BME280;63804;53.120;8.764;2023-03-26T15:59:16;100556.22;;;8.30;45.00
54920;BME280;63804;53.120;8.764;2023-03-26T16:24:14;100572.94;;;8.07;45.08
54920;BME280;63804;53.120;8.764;2023-03-26T16:29:24;100574.47;;;7.98;45.47
54920;BME280;63804;53.120;8.764;2023-03-26T16:32:32;100578.81;;;7.75;44.53
54920;BME280;63804;53.120;8.764;2023-03-26T16:35:01;100578.41;;;7.68;45.49
54920;BME280;63804;53.120;8.764;2023-03-26T16:48:24;100596.84;;;7.08;47.68
54920;BME280;63804;53.120;8.764;2023-03-26T16:51:10;100602.66;;;7.00;48.36
54920;BME280;63804;53.120;8.764;2023-03-26T16:53:44;100592.63;;;6.92;48.34
54920;BME280;63804;53.120;8.764;2023-03-26T16:58:53;100608.47;;;6.92;48.97
54920;BME280;63804;53.120;8.764;2023-03-26T17:01:46;100607.56;;;6.93;48.23
54920;BME280;63804;53.120;8.764;2023-03-26T17:04:18;100621.69;;;6.67;49.03
54920;BME280;63804;53.120;8.764;2023-03-26T17:06:59;100636.91;;;6.63;47.88
54920;BME280;63804;53.120;8.764;2023-03-26T17:20:03;100648.56;;;6.46;46.92
54920;BME280;63804;53.120;8.764;2023-03-26T17:22:41;100650.31;;;6.33;47.34
54920;BME280;63804;53.120;8.764;2023-03-26T17:25:21;100655.81;;;6.16;46.94
54920;BME280;63804;53.120;8.764;2023-03-26T17:28:19;100662.75;;;6.04;48.12
54920;BME280;63804;53.120;8.764;2023-03-26T17:33:27;100657.28;;;6.07;48.10
54920;BME280;63804;53.120;8.764;2023-03-26T17:41:47;100676.19;;;5.87;49.09
54920;BME280;63804;53.120;8.764;2023-03-26T17:44:04;100681.94;;;5.79;49.55
54920;BME280;63804;53.120;8.764;2023-03-26T17:46:48;100691.53;;;5.80;49.69
54920;BME280;63804;53.120;8.764;2023-03-26T17:49:18;100688.25;;;5.76;49.77
54920;BME280;63804;53.120;8.764;2023-03-26T17:51:58;100696.75;;;5.67;50.10
54920;BME280;63804;53.120;8.764;2023-03-26T17:54:40;100705.38;;;5.69;49.51
54920;BME280;63804;53.120;8.764;2023-03-26T17:59:51;100717.16;;;5.64;50.48
54920;BME280;63804;53.120;8.764;2023-03-26T18:02:23;100711.41;;;5.57;50.24
54920;BME280;63804;53.120;8.764;2023-03-26T18:04:54;100714.34;;;5.52;50.63
54920;BME280;63804;53.120;8.764;2023-03-26T18:08:13;100724.31;;;5.47;50.60
54920;BME280;63804;53.120;8.764;2023-03-26T18:10:59;100730.81;;;5.42;51.10
54920;BME280;63804;53.120;8.764;2023-03-26T18:18:57;100751.41;;;5.35;51.71
54920;BME280;63804;53.120;8.764;2023-03-26T18:21:32;100751.56;;;5.32;51.82
54920;BME280;63804;53.120;8.764;2023-03-26T18:23:59;100751.97;;;5.26;51.59
54920;BME280;63804;53.120;8.764;2023-03-26T18:26:38;100750.91;;;5.14;51.80
54920;BME280;63804;53.120;8.764;2023-03-26T18:31:40;100755.50;;;5.11;52.10
54920;BME280;63804;53.120;8.764;2023-03-26T18:34:14;100759.66;;;5.15;51.82
54920;BME280;63804;53.120;8.764;2023-03-26T18:36:58;100763.69;;;5.20;51.00
54920;BME280;63804;53.120;8.764;2023-03-26T18:39:25;100772.44;;;5.21;51.26
54920;BME280;63804;53.120;8.764;2023-03-26T18:41:51;100776.19;;;5.02;51.75
54920;BME280;63804;53.120;8.764;2023-03-26T18:44:18;100780.34;;;5.06;51.42
54920;BME280;63804;53.120;8.764;2023-03-26T18:46:44;100778.59;;;4.91;51.70
54920;BME280;63804;53.120;8.764;2023-03-26T18:49:14;100788.19;;;4.92;51.44
54920;BME280;63804;53.120;8.764;2023-03-26T18:51:41;100781.63;;;4.99;51.45
54920;BME280;63804;53.120;8.764;2023-03-26T18:54:13;100783.66;;;4.94;51.41
54920;BME280;63804;53.120;8.764;2023-03-26T18:56:42;100792.63;;;4.76;51.99
54920;BME280;63804;53.120;8.764;2023-03-26T18:59:29;100795.84;;;4.81;51.96